createdAt,value
2017-08-05T00:00:45.055Z,21.7
2017-08-05T00:01:46.748Z,21.7
2017-08-05T00:02:48.441Z,21.7
2017-08-05T00:03:50.121Z,21.6
2017-08-05T00:04:51.820Z,21.6
2017-08-05T00:05:53.503Z,21.7
2017-08-05T00:06:55.208Z,21.7
2017-08-05T00:07:56.886Z,21.7
2017-08-05T00:08:58.577Z,21.7
2017-08-05T00:10:00.269Z,21.6
2017-08-05T00:11:01.951Z,21.7
2017-08-05T00:12:03.666Z,21.7
2017-08-05T00:13:05.362Z,21.6
2017-08-05T00:14:07.061Z,21.7
2017-08-05T00:15:08.747Z,21.7
2017-08-05T00:16:10.452Z,21.7
2017-08-05T00:17:12.134Z,21.8
2017-08-05T00:18:13.832Z,21.7
2017-08-05T00:19:15.519Z,21.6
2017-08-05T00:20:17.218Z,21.6
2017-08-05T00:21:18.912Z,21.6
2017-08-05T00:22:20.612Z,21.6
2017-08-05T00:23:22.303Z,21.4
2017-08-05T00:24:23.999Z,21.4
2017-08-05T00:25:25.685Z,21.4
2017-08-05T00:26:27.367Z,21.3
2017-08-05T00:27:29.051Z,21.5
2017-08-05T00:28:30.740Z,21.4
2017-08-05T00:29:32.431Z,21.5
2017-08-05T00:30:34.127Z,21.3
2017-08-05T00:31:35.800Z,21.4
2017-08-05T00:32:37.488Z,21.4
2017-08-05T00:33:39.169Z,21.4
2017-08-05T00:34:40.853Z,21.5
2017-08-05T00:35:42.541Z,21.4
2017-08-05T00:36:44.243Z,21.3
2017-08-05T00:37:45.944Z,21.3
2017-08-05T00:38:47.619Z,21.3
2017-08-05T00:39:49.302Z,21.3
2017-08-05T00:40:51.094Z,21.3
2017-08-05T00:41:52.806Z,21.3
2017-08-05T00:42:54.496Z,21.3
2017-08-05T00:43:56.205Z,21.4
2017-08-05T00:44:57.910Z,21.4
2017-08-05T00:45:59.612Z,21.4
2017-08-05T00:47:01.317Z,21.4
2017-08-05T00:48:03.006Z,21.3
2017-08-05T00:49:04.693Z,21.3
2017-08-05T00:50:06.380Z,21.3
2017-08-05T00:51:08.072Z,21.3
2017-08-05T00:52:09.759Z,21.3
2017-08-05T00:53:11.442Z,21.3
2017-08-05T00:54:13.217Z,21.3
2017-08-05T00:55:14.913Z,21.3
2017-08-05T00:56:16.584Z,21.3
2017-08-05T00:57:18.272Z,21.3
2017-08-05T00:58:19.955Z,21.4
2017-08-05T00:59:21.648Z,21.3
2017-08-05T01:00:23.336Z,21.3
2017-08-05T01:01:25.014Z,21.4
2017-08-05T01:02:26.708Z,21.2
2017-08-05T01:03:28.402Z,21.2
2017-08-05T01:04:30.118Z,21.3
2017-08-05T01:05:31.844Z,21.2
2017-08-05T01:06:33.568Z,21.2
2017-08-05T01:07:35.274Z,21.3
2017-08-05T01:08:36.965Z,21.3
2017-08-05T01:09:38.676Z,21.3
2017-08-05T01:10:40.400Z,21.3
2017-08-05T01:11:42.113Z,21.3
2017-08-05T01:12:43.816Z,21.3
2017-08-05T01:13:45.628Z,21.3
2017-08-05T01:14:47.330Z,21.3
2017-08-05T01:15:49.017Z,21.2
2017-08-05T01:16:50.709Z,21.2
2017-08-05T01:17:52.414Z,21.2
2017-08-05T01:18:54.093Z,21.1
2017-08-05T01:19:55.791Z,21.0
2017-08-05T01:20:57.474Z,21.0
2017-08-05T01:21:59.146Z,20.9
2017-08-05T01:23:00.833Z,21.0
2017-08-05T01:24:02.551Z,21.0
2017-08-05T01:25:04.248Z,20.9
2017-08-05T01:26:05.976Z,21.0
2017-08-05T01:27:07.656Z,21.0
2017-08-05T01:28:09.340Z,20.9
2017-08-05T01:29:11.029Z,20.9
2017-08-05T01:30:12.713Z,20.9
2017-08-05T01:31:14.390Z,20.9
2017-08-05T01:32:16.087Z,20.9
2017-08-05T01:33:17.774Z,20.8
2017-08-05T01:34:19.461Z,20.9
2017-08-05T01:35:21.155Z,20.8
2017-08-05T01:36:22.852Z,20.8
2017-08-05T01:37:24.543Z,20.7
2017-08-05T01:38:26.239Z,20.7
2017-08-05T01:39:27.938Z,20.6
2017-08-05T01:40:29.631Z,20.6
2017-08-05T01:41:31.326Z,20.6
2017-08-05T01:42:33.042Z,20.7
2017-08-05T01:43:34.735Z,20.7
2017-08-05T01:44:36.432Z,20.7
2017-08-05T01:45:38.146Z,20.7
2017-08-05T01:46:39.831Z,20.6
2017-08-05T01:47:41.525Z,20.5
2017-08-05T01:48:43.211Z,20.5
2017-08-05T01:49:44.928Z,20.4
2017-08-05T01:50:46.622Z,20.4
2017-08-05T01:51:48.311Z,20.4
2017-08-05T01:52:50.013Z,20.4
2017-08-05T01:53:51.715Z,20.3
2017-08-05T01:54:53.409Z,20.4
2017-08-05T01:55:55.102Z,20.4
2017-08-05T01:56:56.795Z,20.4
2017-08-05T01:57:58.492Z,20.4
2017-08-05T01:59:00.180Z,20.5
2017-08-05T02:00:01.865Z,20.4
2017-08-05T02:01:03.594Z,20.3
2017-08-05T02:02:05.298Z,20.3
2017-08-05T02:03:06.989Z,20.5
2017-08-05T02:04:08.698Z,20.4
2017-08-05T02:05:10.388Z,20.4
2017-08-05T02:06:12.067Z,20.4
2017-08-05T02:07:13.745Z,20.4
2017-08-05T02:08:15.429Z,20.3
2017-08-05T02:09:17.115Z,20.3
2017-08-05T02:10:18.830Z,20.2
2017-08-05T02:11:20.521Z,20.4
2017-08-05T02:12:22.219Z,20.2
2017-08-05T02:13:23.908Z,20.3
2017-08-05T02:14:25.604Z,20.3
2017-08-05T02:15:27.290Z,20.2
2017-08-05T02:16:28.984Z,20.3
2017-08-05T02:17:30.676Z,20.3
2017-08-05T02:18:32.371Z,20.3
2017-08-05T02:19:34.069Z,20.2
2017-08-05T02:20:35.746Z,20.2
2017-08-05T02:21:37.435Z,20.1
2017-08-05T02:22:39.111Z,20.1
2017-08-05T02:23:40.802Z,20.0
2017-08-05T02:24:42.481Z,20.1
2017-08-05T02:25:44.183Z,20.1
2017-08-05T02:26:45.869Z,20.0
2017-08-05T02:27:47.549Z,20.1
2017-08-05T02:28:49.256Z,20.1
2017-08-05T02:29:50.956Z,20.1
2017-08-05T02:30:52.748Z,20.0
2017-08-05T02:31:54.427Z,20.0
2017-08-05T02:32:56.127Z,20.0
2017-08-05T02:33:57.813Z,20.1
2017-08-05T02:34:59.496Z,20.0
2017-08-05T02:36:01.188Z,20.1
2017-08-05T02:37:02.866Z,20.1
2017-08-05T02:38:04.581Z,19.9
2017-08-05T02:39:06.277Z,19.9
2017-08-05T02:40:07.959Z,19.9
2017-08-05T02:41:09.667Z,19.9
2017-08-05T02:42:11.360Z,19.9
2017-08-05T02:43:13.049Z,19.8
2017-08-05T02:44:14.744Z,19.9
2017-08-05T02:45:16.428Z,19.8
2017-08-05T02:46:18.112Z,19.8
2017-08-05T02:47:19.796Z,19.8
2017-08-05T02:48:21.509Z,19.7
2017-08-05T02:49:23.175Z,19.8
2017-08-05T02:50:24.869Z,19.8
2017-08-05T02:51:26.539Z,19.9
2017-08-05T02:52:28.244Z,19.8
2017-08-05T02:53:29.915Z,19.8
2017-08-05T02:54:31.610Z,19.6
2017-08-05T02:55:33.294Z,19.8
2017-08-05T02:56:34.973Z,19.8
2017-08-05T02:57:36.663Z,19.7
2017-08-05T02:58:38.350Z,19.7
2017-08-05T02:59:40.039Z,19.8
2017-08-05T03:00:41.733Z,19.8
2017-08-05T03:01:43.399Z,19.7
2017-08-05T03:02:45.104Z,19.7
2017-08-05T03:03:46.792Z,19.7
2017-08-05T03:04:48.476Z,19.7
2017-08-05T03:05:50.191Z,19.7
2017-08-05T03:06:51.866Z,19.7
2017-08-05T03:07:53.569Z,19.6
2017-08-05T03:08:55.252Z,19.7
2017-08-05T03:09:56.946Z,19.6
2017-08-05T03:10:58.618Z,19.6
2017-08-05T03:12:00.305Z,19.6
2017-08-05T03:13:02.000Z,19.5
2017-08-05T03:14:03.677Z,19.5
2017-08-05T03:15:05.355Z,19.5
2017-08-05T03:16:07.026Z,19.7
2017-08-05T03:17:08.696Z,19.6
2017-08-05T03:18:10.408Z,19.6
2017-08-05T03:19:12.124Z,19.6
2017-08-05T03:20:13.807Z,19.6
2017-08-05T03:21:15.507Z,19.6
2017-08-05T03:22:17.203Z,19.6
2017-08-05T03:23:18.912Z,19.6
2017-08-05T03:24:20.599Z,19.5
2017-08-05T03:25:22.311Z,19.6
2017-08-05T03:26:23.994Z,19.7
2017-08-05T03:27:25.709Z,19.7
2017-08-05T03:28:27.400Z,19.7
2017-08-05T03:29:29.098Z,19.7
2017-08-05T03:30:30.791Z,19.8
2017-08-05T03:31:32.481Z,19.8
2017-08-05T03:32:34.181Z,19.7
2017-08-05T03:33:35.867Z,19.8
2017-08-05T03:34:37.566Z,19.8
2017-08-05T03:35:39.252Z,19.8
2017-08-05T03:36:40.944Z,19.8
2017-08-05T03:37:42.628Z,19.6
2017-08-05T03:38:44.324Z,19.8
2017-08-05T03:39:46.003Z,19.7
2017-08-05T03:40:47.676Z,19.7
2017-08-05T03:41:49.366Z,19.8
2017-08-05T03:42:51.045Z,19.8
2017-08-05T03:43:52.728Z,19.8
2017-08-05T03:44:54.413Z,19.8
2017-08-05T03:45:56.113Z,19.7
2017-08-05T03:46:57.803Z,19.7
2017-08-05T03:47:59.499Z,19.6
2017-08-05T03:49:01.210Z,19.6
2017-08-05T03:50:02.895Z,19.6
2017-08-05T03:51:04.592Z,19.5
2017-08-05T03:52:06.289Z,19.7
2017-08-05T03:53:07.970Z,19.7
2017-08-05T03:54:09.663Z,19.6
2017-08-05T03:55:11.371Z,19.7
2017-08-05T03:56:13.062Z,19.5
2017-08-05T03:57:14.763Z,19.5
2017-08-05T03:58:16.430Z,19.5
2017-08-05T03:59:18.124Z,19.5
2017-08-05T04:00:19.813Z,19.6
2017-08-05T04:01:21.517Z,19.6
2017-08-05T04:02:23.197Z,19.6
2017-08-05T04:03:24.906Z,19.5
2017-08-05T04:04:26.583Z,19.5
2017-08-05T04:05:28.276Z,19.5
2017-08-05T04:06:29.992Z,19.5
2017-08-05T04:07:31.681Z,19.6
2017-08-05T04:08:33.364Z,19.5
2017-08-05T04:09:35.053Z,19.6
2017-08-05T04:10:36.775Z,19.6
2017-08-05T04:11:38.486Z,19.5
2017-08-05T04:12:40.188Z,19.6
2017-08-05T04:13:41.872Z,19.5
2017-08-05T04:14:43.589Z,19.6
2017-08-05T04:15:45.292Z,19.4
2017-08-05T04:16:46.981Z,19.4
2017-08-05T04:17:48.687Z,19.4
2017-08-05T04:18:50.365Z,19.4
2017-08-05T04:19:52.075Z,19.4
2017-08-05T04:20:53.792Z,19.4
2017-08-05T04:21:55.478Z,19.4
2017-08-05T04:22:57.164Z,19.5
2017-08-05T04:23:58.873Z,19.4
2017-08-05T04:25:00.569Z,19.4
2017-08-05T04:26:02.267Z,19.4
2017-08-05T04:27:03.957Z,19.5
2017-08-05T04:28:05.651Z,19.5
2017-08-05T04:29:07.359Z,19.5
2017-08-05T04:30:09.031Z,19.5
2017-08-05T04:31:10.735Z,19.3
2017-08-05T04:32:12.482Z,19.4
2017-08-05T04:33:14.179Z,19.3
2017-08-05T04:34:15.873Z,19.4
2017-08-05T04:35:17.574Z,19.4
2017-08-05T04:36:19.287Z,19.4
2017-08-05T04:37:20.978Z,19.4
2017-08-05T04:38:22.690Z,19.5
2017-08-05T04:39:24.398Z,19.4
2017-08-05T04:40:26.068Z,19.4
2017-08-05T04:41:27.764Z,19.4
2017-08-05T04:42:29.454Z,19.4
2017-08-05T04:43:31.132Z,19.4
2017-08-05T04:44:32.818Z,19.5
2017-08-05T04:45:34.509Z,19.4
2017-08-05T04:46:36.195Z,19.4
2017-08-05T04:47:37.914Z,19.5
2017-08-05T04:48:39.588Z,19.5
2017-08-05T04:49:41.282Z,19.5
2017-08-05T04:50:42.997Z,19.6
2017-08-05T04:51:44.712Z,19.6
2017-08-05T04:52:46.393Z,19.6
2017-08-05T04:53:48.094Z,19.6
2017-08-05T04:54:49.797Z,19.5
2017-08-05T04:55:51.494Z,19.5
2017-08-05T04:56:53.191Z,19.6
2017-08-05T04:57:54.888Z,19.4
2017-08-05T04:58:56.586Z,19.5
2017-08-05T04:59:58.268Z,19.5
2017-08-05T05:01:00.058Z,19.5
2017-08-05T05:02:01.734Z,19.5
2017-08-05T05:03:03.425Z,19.5
2017-08-05T05:04:05.109Z,19.6
2017-08-05T05:05:06.829Z,19.6
2017-08-05T05:06:08.567Z,19.5
2017-08-05T05:07:10.260Z,19.6
2017-08-05T05:08:11.959Z,19.6
2017-08-05T05:09:13.669Z,19.6
2017-08-05T05:10:15.351Z,19.6
2017-08-05T05:11:17.056Z,19.5
2017-08-05T05:12:18.740Z,19.6
2017-08-05T05:13:20.430Z,19.6
2017-08-05T05:14:22.125Z,19.5
2017-08-05T05:15:23.819Z,19.5
2017-08-05T05:16:25.509Z,19.5
2017-08-05T05:17:27.188Z,19.6
2017-08-05T05:18:28.880Z,19.6
2017-08-05T05:19:30.594Z,19.7
2017-08-05T05:20:32.288Z,19.7
2017-08-05T05:21:33.988Z,19.7
2017-08-05T05:22:35.684Z,19.8
2017-08-05T05:23:37.384Z,19.8
2017-08-05T05:24:39.073Z,19.6
2017-08-05T05:25:40.766Z,19.7
2017-08-05T05:26:42.483Z,19.7
2017-08-05T05:27:44.177Z,19.6
2017-08-05T05:28:45.870Z,19.6
2017-08-05T05:29:47.553Z,19.6
2017-08-05T05:30:49.340Z,19.7
2017-08-05T05:31:51.025Z,19.7
2017-08-05T05:32:52.720Z,19.5
2017-08-05T05:33:54.408Z,19.7
2017-08-05T05:34:56.098Z,19.7
2017-08-05T05:35:57.801Z,19.6
2017-08-05T05:36:59.484Z,19.7
2017-08-05T05:38:01.194Z,19.8
2017-08-05T05:39:02.883Z,19.7
2017-08-05T05:40:04.586Z,19.7
2017-08-05T05:41:06.278Z,19.7
2017-08-05T05:42:07.956Z,19.7
2017-08-05T05:43:09.653Z,19.8
2017-08-05T05:44:11.348Z,19.6
2017-08-05T05:45:13.029Z,19.8
2017-08-05T05:46:14.729Z,19.8
2017-08-05T05:47:16.421Z,19.7
2017-08-05T05:48:18.117Z,19.7
2017-08-05T05:49:19.829Z,19.7
2017-08-05T05:50:21.564Z,19.8
2017-08-05T05:51:23.260Z,19.8
2017-08-05T05:52:24.976Z,19.8
2017-08-05T05:53:26.656Z,19.8
2017-08-05T05:54:28.388Z,19.8
2017-08-05T05:55:30.096Z,19.7
2017-08-05T05:56:31.780Z,19.8
2017-08-05T05:57:33.500Z,19.7
2017-08-05T05:58:35.238Z,19.6
2017-08-05T05:59:36.934Z,19.6
2017-08-05T06:00:38.630Z,19.6
2017-08-05T06:01:40.331Z,19.7
2017-08-05T06:02:42.026Z,19.8
2017-08-05T06:03:43.740Z,19.6
2017-08-05T06:04:45.444Z,19.7
2017-08-05T06:05:47.196Z,19.7
2017-08-05T06:06:48.921Z,19.7
2017-08-05T06:07:50.625Z,19.7
2017-08-05T06:08:52.315Z,19.8
2017-08-05T06:09:54.018Z,19.9
2017-08-05T06:10:55.710Z,19.8
2017-08-05T06:11:57.403Z,19.7
2017-08-05T06:12:59.106Z,19.6
2017-08-05T06:14:00.822Z,19.7
2017-08-05T06:15:02.518Z,19.7
2017-08-05T06:16:04.351Z,19.6
2017-08-05T06:17:06.064Z,19.7
2017-08-05T06:18:07.775Z,19.7
2017-08-05T06:19:09.512Z,19.5
2017-08-05T06:20:11.204Z,19.7
2017-08-05T06:21:12.890Z,19.7
2017-08-05T06:22:14.628Z,19.7
2017-08-05T06:23:16.318Z,19.6
2017-08-05T06:24:18.016Z,19.7
2017-08-05T06:25:19.723Z,19.6
2017-08-05T06:26:21.410Z,19.7
2017-08-05T06:27:23.105Z,19.7
2017-08-05T06:28:24.788Z,19.7
2017-08-05T06:29:26.489Z,19.7
2017-08-05T06:30:28.177Z,19.8
2017-08-05T06:31:29.859Z,19.7
2017-08-05T06:32:31.573Z,19.7
2017-08-05T06:33:33.287Z,19.7
2017-08-05T06:34:34.989Z,19.8
2017-08-05T06:35:36.694Z,19.8
2017-08-05T06:36:38.379Z,19.8
2017-08-05T06:37:40.080Z,19.8
2017-08-05T06:38:41.779Z,19.9
2017-08-05T06:39:43.473Z,19.9
2017-08-05T06:40:45.175Z,19.8
2017-08-05T06:41:46.893Z,19.8
2017-08-05T06:42:48.590Z,19.8
2017-08-05T06:43:50.276Z,19.9
2017-08-05T06:44:51.977Z,19.8
2017-08-05T06:45:53.670Z,19.9
2017-08-05T06:46:55.368Z,19.9
2017-08-05T06:47:57.060Z,19.8
2017-08-05T06:48:58.763Z,19.9
2017-08-05T06:50:00.451Z,19.7
2017-08-05T06:51:02.159Z,19.7
2017-08-05T06:52:03.863Z,19.8
2017-08-05T06:53:05.571Z,19.8
2017-08-05T06:54:07.280Z,19.7
2017-08-05T06:55:08.985Z,19.7
2017-08-05T06:56:10.668Z,19.8
2017-08-05T06:57:12.375Z,19.8
2017-08-05T06:58:14.085Z,19.8
2017-08-05T06:59:15.781Z,19.9
2017-08-05T07:00:17.466Z,19.9
2017-08-05T07:01:19.154Z,19.8
2017-08-05T07:02:20.844Z,19.8
2017-08-05T07:03:22.536Z,19.9
2017-08-05T07:04:24.235Z,19.9
2017-08-05T07:05:25.993Z,19.9
2017-08-05T07:06:27.689Z,19.9
2017-08-05T07:07:29.377Z,19.9
2017-08-05T07:08:31.060Z,19.9
2017-08-05T07:09:32.754Z,19.8
2017-08-05T07:10:34.470Z,20.0
2017-08-05T07:11:36.155Z,19.8
2017-08-05T07:12:37.844Z,20.0
2017-08-05T07:13:39.535Z,20.0
2017-08-05T07:14:41.225Z,20.0
2017-08-05T07:15:42.914Z,20.0
2017-08-05T07:16:44.603Z,19.9
2017-08-05T07:17:46.295Z,19.9
2017-08-05T07:18:47.988Z,20.0
2017-08-05T07:19:49.690Z,20.0
2017-08-05T07:20:51.382Z,20.0
2017-08-05T07:21:53.099Z,20.0
2017-08-05T07:22:54.788Z,20.1
2017-08-05T07:23:56.472Z,19.9
2017-08-05T07:24:58.163Z,20.1
2017-08-05T07:25:59.906Z,20.0
2017-08-05T07:27:01.612Z,20.1
2017-08-05T07:28:03.325Z,20.0
2017-08-05T07:29:05.019Z,20.1
2017-08-05T07:30:06.718Z,20.0
2017-08-05T07:31:08.423Z,20.1
2017-08-05T07:32:10.134Z,20.1
2017-08-05T07:33:11.858Z,20.1
2017-08-05T07:34:13.588Z,20.0
2017-08-05T07:35:15.286Z,20.1
2017-08-05T07:36:16.999Z,20.1
2017-08-05T07:37:18.697Z,20.1
2017-08-05T07:38:20.410Z,20.0
2017-08-05T07:39:22.101Z,19.9
2017-08-05T07:40:23.804Z,20.0
2017-08-05T07:41:25.507Z,19.9
2017-08-05T07:42:27.229Z,20.0
2017-08-05T07:43:28.939Z,20.0
2017-08-05T07:44:30.660Z,20.1
2017-08-05T07:45:32.355Z,20.1
2017-08-05T07:46:34.050Z,20.2
2017-08-05T07:47:35.741Z,20.3
2017-08-05T07:48:37.439Z,20.3
2017-08-05T07:49:39.154Z,20.2
2017-08-05T07:50:40.853Z,20.2
2017-08-05T07:51:42.554Z,20.2
2017-08-05T07:52:44.255Z,20.1
2017-08-05T07:53:45.972Z,20.2
2017-08-05T07:54:47.672Z,20.1
2017-08-05T07:55:49.395Z,20.2
2017-08-05T07:56:51.078Z,20.2
2017-08-05T07:57:52.766Z,20.3
2017-08-05T07:58:54.470Z,20.4
2017-08-05T07:59:56.148Z,20.4
2017-08-05T08:00:57.852Z,20.4
2017-08-05T08:01:59.564Z,20.4
2017-08-05T08:03:01.264Z,20.4
2017-08-05T08:04:02.954Z,20.4
2017-08-05T08:05:04.643Z,20.4
2017-08-05T08:06:06.345Z,20.4
2017-08-05T08:07:08.082Z,20.4
2017-08-05T08:08:09.778Z,20.3
2017-08-05T08:09:11.474Z,20.5
2017-08-05T08:10:13.185Z,20.6
2017-08-05T08:11:14.873Z,20.6
2017-08-05T08:12:16.621Z,20.6
2017-08-05T08:13:18.332Z,20.6
2017-08-05T08:14:20.019Z,20.7
2017-08-05T08:15:21.711Z,20.6
2017-08-05T08:16:23.408Z,20.7
2017-08-05T08:17:25.115Z,20.7
2017-08-05T08:18:26.809Z,20.7
2017-08-05T08:19:28.525Z,20.7
2017-08-05T08:20:30.210Z,20.8
2017-08-05T08:21:31.908Z,20.9
2017-08-05T08:22:33.595Z,20.9
2017-08-05T08:23:35.309Z,21.0
2017-08-05T08:24:36.998Z,20.9
2017-08-05T08:25:38.682Z,20.8
2017-08-05T08:26:40.363Z,20.9
2017-08-05T08:27:42.080Z,20.8
2017-08-05T08:28:43.768Z,20.9
2017-08-05T08:29:45.465Z,21.0
2017-08-05T08:30:47.179Z,21.1
2017-08-05T08:31:48.871Z,21.3
2017-08-05T08:32:50.566Z,21.1
2017-08-05T08:33:52.259Z,21.2
2017-08-05T08:34:53.960Z,21.3
2017-08-05T08:35:55.661Z,21.2
2017-08-05T08:36:57.355Z,21.2
2017-08-05T08:37:59.057Z,21.0
2017-08-05T08:39:00.764Z,20.9
2017-08-05T08:40:02.440Z,20.9
2017-08-05T08:41:04.131Z,20.9
2017-08-05T08:42:05.830Z,21.0
2017-08-05T08:43:07.525Z,21.1
2017-08-05T08:44:09.224Z,21.2
2017-08-05T08:45:10.913Z,21.3
2017-08-05T08:46:12.598Z,21.2
2017-08-05T08:47:14.314Z,21.3
2017-08-05T08:48:16.015Z,21.1
2017-08-05T08:49:17.728Z,21.0
2017-08-05T08:50:19.437Z,21.2
2017-08-05T08:51:21.126Z,21.0
2017-08-05T08:52:22.845Z,21.1
2017-08-05T08:53:24.534Z,21.1
2017-08-05T08:54:26.230Z,20.9
2017-08-05T08:55:27.912Z,21.0
2017-08-05T08:56:29.593Z,21.2
2017-08-05T08:57:31.288Z,21.0
2017-08-05T08:58:32.987Z,21.0
2017-08-05T08:59:34.701Z,21.0
2017-08-05T09:00:36.409Z,21.0
2017-08-05T09:01:38.113Z,21.0
2017-08-05T09:02:39.801Z,21.0
2017-08-05T09:03:41.501Z,21.0
2017-08-05T09:04:43.190Z,21.0
2017-08-05T09:05:44.872Z,20.9
2017-08-05T09:06:46.634Z,21.0
2017-08-05T09:07:48.338Z,21.2
2017-08-05T09:08:50.035Z,21.1
2017-08-05T09:09:51.728Z,21.1
2017-08-05T09:10:53.419Z,21.1
2017-08-05T09:11:55.117Z,21.1
2017-08-05T09:12:56.820Z,21.2
2017-08-05T09:13:58.526Z,21.3
2017-08-05T09:15:00.227Z,21.2
2017-08-05T09:16:02.022Z,21.2
2017-08-05T09:17:03.728Z,21.0
2017-08-05T09:18:05.422Z,21.1
2017-08-05T09:19:07.129Z,21.2
2017-08-05T09:20:08.824Z,21.0
2017-08-05T09:21:10.508Z,21.0
2017-08-05T09:22:12.198Z,21.2
2017-08-05T09:23:13.893Z,21.3
2017-08-05T09:24:15.575Z,21.0
2017-08-05T09:25:17.279Z,21.1
2017-08-05T09:26:18.965Z,21.1
2017-08-05T09:27:20.670Z,21.0
2017-08-05T09:28:22.362Z,21.1
2017-08-05T09:29:24.050Z,21.2
2017-08-05T09:30:25.744Z,21.3
2017-08-05T09:31:27.449Z,21.3
2017-08-05T09:32:29.152Z,21.2
2017-08-05T09:33:30.856Z,21.0
2017-08-05T09:34:32.569Z,21.3
2017-08-05T09:35:34.260Z,21.2
2017-08-05T09:36:35.966Z,21.2
2017-08-05T09:37:37.674Z,21.2
2017-08-05T09:38:39.363Z,21.2
2017-08-05T09:39:41.080Z,21.2
2017-08-05T09:40:42.771Z,21.3
2017-08-05T09:41:44.474Z,21.3
2017-08-05T09:42:46.167Z,21.3
2017-08-05T09:43:47.859Z,21.3
2017-08-05T09:44:49.541Z,21.4
2017-08-05T09:45:51.242Z,21.3
2017-08-05T09:46:52.940Z,21.4
2017-08-05T09:47:54.639Z,21.5
2017-08-05T09:48:56.338Z,21.5
2017-08-05T09:49:58.039Z,21.5
2017-08-05T09:50:59.723Z,21.4
2017-08-05T09:52:01.409Z,21.4
2017-08-05T09:53:03.110Z,21.6
2017-08-05T09:54:04.801Z,21.5
2017-08-05T09:55:06.485Z,21.6
2017-08-05T09:56:08.191Z,21.7
2017-08-05T09:57:09.882Z,21.8
2017-08-05T09:58:11.601Z,21.6
2017-08-05T09:59:13.304Z,21.7
2017-08-05T10:00:15.028Z,21.6
2017-08-05T10:01:16.720Z,21.7
2017-08-05T10:02:18.419Z,21.6
2017-08-05T10:03:20.123Z,21.7
2017-08-05T10:04:21.820Z,21.8
2017-08-05T10:05:23.521Z,21.9
2017-08-05T10:06:25.239Z,22.0
2017-08-05T10:07:26.939Z,21.9
2017-08-05T10:08:28.632Z,22.0
2017-08-05T10:09:30.350Z,22.1
2017-08-05T10:10:32.051Z,22.1
2017-08-05T10:11:33.754Z,22.3
2017-08-05T10:12:35.469Z,22.6
2017-08-05T10:13:37.168Z,22.8
2017-08-05T10:14:38.871Z,22.7
2017-08-05T10:15:40.568Z,22.7
2017-08-05T10:16:42.293Z,22.8
2017-08-05T10:17:43.990Z,22.8
2017-08-05T10:18:45.737Z,22.5
2017-08-05T10:19:47.429Z,22.6
2017-08-05T10:20:49.109Z,22.8
2017-08-05T10:21:50.832Z,22.9
2017-08-05T10:22:52.534Z,22.7
2017-08-05T10:23:54.264Z,22.9
2017-08-05T10:24:55.951Z,22.6
2017-08-05T10:25:57.684Z,22.7
2017-08-05T10:26:59.368Z,22.8
2017-08-05T10:28:01.082Z,22.8
2017-08-05T10:29:02.773Z,22.8
2017-08-05T10:30:04.461Z,22.8
2017-08-05T10:31:06.160Z,23.0
2017-08-05T10:32:07.871Z,22.9
2017-08-05T10:33:09.558Z,23.0
2017-08-05T10:34:11.247Z,23.1
